Tyler, Minnesota
Current Conditions -  °F | °C
As of 6:55 AM on Saturday 20 Dec 2014 (Local Time) from KMML Reporting Station
Overcast Overcast  
Wind Chill: 20°   Ceiling: 1000
Heat Index: 30°   Visibility: 7mi
Dew Point: 27°   Wind: 13mph
Humidity: 86%   Direction: 190°S
Pressure: 30.07"   Gusts: NA
Location:  44.28°N, 96.13°W
Report Text: KMML 201255Z AUTO 19011KT 7SM OVC010 M01/M03 A3007 RMK AO1
Loading
Personal Weather Stations






























Interactive Weather Map New forecast layout! Learn more

10-Day Weather Forecast

Advertisements
Track Severe Weather on mobile